createdAt,value
2022-09-20T00:01:22.766Z,3.72
2022-09-20T00:06:26.639Z,3.88
2022-09-20T00:08:53.811Z,4.30
2022-09-20T00:11:22.818Z,4.20
2022-09-20T00:13:50.991Z,4.30
2022-09-20T00:16:20.212Z,4.45
2022-09-20T00:18:51.171Z,4.15
2022-09-20T00:21:19.809Z,4.40
2022-09-20T00:23:46.872Z,4.45
2022-09-20T00:26:14.017Z,4.40
2022-09-20T00:28:41.616Z,4.40
2022-09-20T00:31:08.767Z,4.95
2022-09-20T00:33:53.909Z,4.50
2022-09-20T00:36:20.789Z,4.55
2022-09-20T00:38:48.002Z,4.68
2022-09-20T00:41:15.039Z,4.25
2022-09-20T00:43:43.685Z,4.30
2022-09-20T00:46:25.950Z,4.18
2022-09-20T00:48:55.219Z,4.40
2022-09-20T00:51:31.889Z,4.13
2022-09-20T00:54:00.043Z,4.63
2022-09-20T00:56:29.780Z,4.75
2022-09-20T00:59:16.222Z,4.47
2022-09-20T01:01:44.504Z,4.78
2022-09-20T01:04:11.944Z,4.60
2022-09-20T01:06:38.984Z,4.57
2022-09-20T01:09:07.326Z,5.32
2022-09-20T01:11:34.808Z,4.68
2022-09-20T01:14:01.852Z,4.40
2022-09-20T01:16:29.128Z,5.10
2022-09-20T01:18:57.458Z,5.22
2022-09-20T01:21:24.393Z,4.82
2022-09-20T01:24:33.685Z,4.80
2022-09-20T01:27:31.674Z,4.65
2022-09-20T01:30:04.071Z,5.25
2022-09-20T01:32:55.491Z,5.10
2022-09-20T01:35:22.774Z,5.13
2022-09-20T01:38:08.081Z,5.18
2022-09-20T01:41:09.723Z,5.30
2022-09-20T01:44:04.470Z,5.35
2022-09-20T01:46:33.202Z,5.00
2022-09-20T01:49:03.227Z,4.75
2022-09-20T01:51:41.969Z,4.82
2022-09-20T01:54:17.778Z,4.55
2022-09-20T01:57:17.775Z,4.75
2022-09-20T01:59:44.827Z,4.72
2022-09-20T02:02:43.973Z,5.20
2022-09-20T02:05:51.386Z,5.18
2022-09-20T02:08:44.117Z,4.60
2022-09-20T02:11:23.673Z,4.80
2022-09-20T02:14:06.377Z,4.60
2022-09-20T02:17:00.943Z,4.63
2022-09-20T02:19:37.909Z,4.70
2022-09-20T02:22:31.126Z,5.20
2022-09-20T02:25:03.464Z,5.35
2022-09-20T02:27:53.886Z,5.57
2022-09-20T02:30:23.602Z,5.35
2022-09-20T02:33:41.711Z,5.30
2022-09-20T02:36:14.637Z,5.40
2022-09-20T02:39:00.061Z,5.18
2022-09-20T02:41:52.749Z,5.70
2022-09-20T02:44:54.919Z,5.65
2022-09-20T02:47:37.564Z,4.68
2022-09-20T02:50:38.539Z,5.10
2022-09-20T02:53:08.708Z,5.30
2022-09-20T02:55:43.588Z,5.82
2022-09-20T02:58:19.348Z,6.05
2022-09-20T03:01:17.638Z,5.45
2022-09-20T03:04:03.039Z,5.50
2022-09-20T03:06:59.970Z,5.40
2022-09-20T03:09:43.140Z,5.60
2022-09-20T03:12:47.251Z,5.80
2022-09-20T03:15:19.800Z,5.47
2022-09-20T03:18:11.704Z,6.13
2022-09-20T03:20:57.484Z,6.07
2022-09-20T03:24:05.949Z,6.15
2022-09-20T03:27:10.277Z,5.63
2022-09-20T03:29:56.240Z,5.60
2022-09-20T03:32:33.885Z,5.65
2022-09-20T03:35:39.185Z,5.90
2022-09-20T03:38:08.967Z,5.40
2022-09-20T03:40:56.676Z,5.68
2022-09-20T03:43:30.522Z,5.50
2022-09-20T03:46:16.227Z,5.70
2022-09-20T03:49:04.677Z,5.78
2022-09-20T03:51:56.237Z,5.40
2022-09-20T03:55:02.750Z,5.45
2022-09-20T03:57:54.511Z,5.15
2022-09-20T04:00:33.988Z,5.30
2022-09-20T04:03:03.278Z,5.80
2022-09-20T04:05:37.006Z,6.00
2022-09-20T04:08:39.949Z,5.45
2022-09-20T04:11:31.473Z,5.53
2022-09-20T04:14:11.535Z,5.40
2022-09-20T04:17:03.513Z,5.30
2022-09-20T04:19:35.362Z,5.57
2022-09-20T04:22:03.192Z,5.72
2022-09-20T04:24:30.103Z,6.40
2022-09-20T04:27:24.526Z,6.20
2022-09-20T04:30:05.512Z,6.43
2022-09-20T04:32:52.470Z,6.80
2022-09-20T04:35:50.108Z,6.05
2022-09-20T04:38:18.708Z,6.55
2022-09-20T04:41:00.673Z,6.63
2022-09-20T04:43:58.056Z,6.45
2022-09-20T04:47:02.237Z,6.15
2022-09-20T04:49:50.405Z,6.28
2022-09-20T04:52:53.676Z,6.40
2022-09-20T04:55:35.572Z,5.50
2022-09-20T04:58:08.400Z,6.10
2022-09-20T05:01:17.128Z,6.05
2022-09-20T05:04:05.310Z,6.53
2022-09-20T05:07:01.661Z,6.10
2022-09-20T05:09:53.027Z,5.97
2022-09-20T05:12:36.373Z,6.43
2022-09-20T05:15:23.926Z,6.50
2022-09-20T05:18:07.262Z,6.18
2022-09-20T05:20:40.433Z,6.72
2022-09-20T05:23:16.746Z,6.20
2022-09-20T05:26:17.988Z,5.85
2022-09-20T05:29:01.860Z,5.97
2022-09-20T05:31:45.074Z,5.72
2022-09-20T05:34:33.196Z,5.70
2022-09-20T05:37:06.265Z,5.90
2022-09-20T05:40:13.283Z,5.78
2022-09-20T05:42:44.286Z,6.13
2022-09-20T05:45:33.442Z,5.97
2022-09-20T05:48:10.448Z,6.10
2022-09-20T05:51:13.656Z,5.95
2022-09-20T05:53:46.534Z,6.75
2022-09-20T05:56:33.350Z,6.90
2022-09-20T05:59:22.690Z,6.80
2022-09-20T06:02:16.714Z,6.72
2022-09-20T06:05:16.933Z,6.55
2022-09-20T06:08:00.777Z,6.22
2022-09-20T06:10:55.657Z,6.68
2022-09-20T06:13:41.660Z,6.43
2022-09-20T06:16:12.337Z,6.43
2022-09-20T06:18:53.737Z,5.75
2022-09-20T06:21:46.780Z,6.18
2022-09-20T06:25:04.337Z,5.05
2022-09-20T06:27:41.155Z,4.18
2022-09-20T06:30:15.165Z,4.65
2022-09-20T06:33:07.236Z,4.40
2022-09-20T06:38:43.781Z,5.47
2022-09-20T06:41:29.863Z,6.88
2022-09-20T06:43:59.164Z,5.97
2022-09-20T06:46:31.565Z,6.80
2022-09-20T06:48:58.702Z,6.63
2022-09-20T06:51:26.964Z,6.05
2022-09-20T06:53:55.021Z,6.90
2022-09-20T06:56:29.814Z,6.85
2022-09-20T06:58:56.810Z,7.05
2022-09-20T07:01:30.236Z,6.55
2022-09-20T07:03:58.948Z,6.18
2022-09-20T07:06:26.827Z,5.63
2022-09-20T07:08:53.867Z,5.88
2022-09-20T07:11:21.342Z,5.88
2022-09-20T07:13:50.830Z,6.03
2022-09-20T07:16:17.767Z,6.43
2022-09-20T07:18:44.909Z,6.20
2022-09-20T07:21:12.665Z,6.72
2022-09-20T07:23:39.630Z,6.15
2022-09-20T07:26:07.180Z,5.90
2022-09-20T07:28:34.795Z,5.65
2022-09-20T07:31:01.894Z,6.05
2022-09-20T07:33:28.958Z,5.95
2022-09-20T07:35:56.007Z,6.57
2022-09-20T07:38:23.136Z,5.80
2022-09-20T07:40:57.752Z,6.00
2022-09-20T07:43:25.363Z,5.70
2022-09-20T07:45:56.109Z,5.53
2022-09-20T07:48:25.546Z,5.88
2022-09-20T07:51:04.748Z,8.05
2022-09-20T07:53:35.199Z,7.15
2022-09-20T07:56:04.206Z,6.70
2022-09-20T07:58:31.979Z,7.18
2022-09-20T08:01:00.179Z,6.95
2022-09-20T08:03:27.327Z,7.15
2022-09-20T08:06:00.145Z,6.57
2022-09-20T08:08:27.148Z,6.20
2022-09-20T08:10:56.061Z,5.70
2022-09-20T08:16:11.020Z,5.88
2022-09-20T08:18:38.045Z,5.93
2022-09-20T08:21:06.692Z,6.10
2022-09-20T08:23:41.291Z,5.50
2022-09-20T08:26:09.889Z,5.72
2022-09-20T08:28:36.888Z,4.85
2022-09-20T08:31:09.060Z,4.90
2022-09-20T08:33:39.293Z,5.00
2022-09-20T08:36:07.004Z,4.25
2022-09-20T08:41:28.520Z,5.35
2022-09-20T08:44:00.554Z,4.43
2022-09-20T08:46:35.944Z,5.20
2022-09-20T08:49:11.025Z,5.10
2022-09-20T08:51:39.115Z,5.22
2022-09-20T08:54:14.463Z,4.72
2022-09-20T08:56:41.340Z,4.68
2022-09-20T08:59:11.673Z,4.38
2022-09-20T09:01:38.764Z,4.17
2022-09-20T09:04:13.274Z,4.32
2022-09-20T09:06:40.443Z,3.88
2022-09-20T09:09:07.502Z,3.40
2022-09-20T09:11:34.821Z,3.50
2022-09-20T09:14:25.426Z,3.47
2022-09-20T09:16:52.450Z,3.00
2022-09-20T09:19:33.358Z,3.25
2022-09-20T09:24:28.598Z,3.40
2022-09-20T09:27:19.328Z,3.20
2022-09-20T09:29:51.028Z,2.80
2022-09-20T09:32:28.568Z,2.97
2022-09-20T09:34:56.155Z,3.45
2022-09-20T09:37:28.681Z,3.28
2022-09-20T09:40:19.005Z,3.00
2022-09-20T09:42:57.184Z,2.03
2022-09-20T09:45:39.044Z,1.95
2022-09-20T09:48:27.623Z,1.40
2022-09-20T09:51:11.589Z,1.40
2022-09-20T09:53:39.137Z,1.20
2022-09-20T09:56:30.102Z,1.10
2022-09-20T09:59:10.687Z,1.40
2022-09-20T10:01:40.436Z,1.37
2022-09-20T10:04:21.621Z,1.70
2022-09-20T10:07:00.847Z,1.90
2022-09-20T10:09:53.010Z,1.90
2022-09-20T10:12:30.310Z,1.60
2022-09-20T10:15:14.410Z,1.48
2022-09-20T10:18:22.290Z,1.65
2022-09-20T10:21:25.135Z,1.50
2022-09-20T10:24:04.059Z,1.60
2022-09-20T10:26:40.377Z,1.50
2022-09-20T10:29:08.447Z,1.70
2022-09-20T10:32:18.203Z,1.50
2022-09-20T10:35:03.778Z,1.40
2022-09-20T10:37:33.648Z,1.98
2022-09-20T10:40:16.302Z,1.67
2022-09-20T10:43:08.609Z,1.60
2022-09-20T10:48:42.759Z,1.83
2022-09-20T10:51:28.404Z,1.63
2022-09-20T10:54:08.871Z,2.53
2022-09-20T10:56:43.727Z,1.60
2022-09-20T10:59:20.685Z,1.30
2022-09-20T11:02:30.223Z,1.65
2022-09-20T11:05:16.682Z,1.50
2022-09-20T11:08:03.402Z,1.60
2022-09-20T11:10:36.214Z,1.50
2022-09-20T11:13:07.849Z,1.50
2022-09-20T11:16:10.125Z,1.58
2022-09-20T11:18:54.126Z,1.40
2022-09-20T11:21:31.731Z,1.33
2022-09-20T11:24:18.228Z,1.40
2022-09-20T11:26:52.302Z,1.50
2022-09-20T11:29:35.891Z,1.50
2022-09-20T11:32:10.877Z,1.40
2022-09-20T11:35:08.773Z,1.58
2022-09-20T11:37:38.612Z,1.35
2022-09-20T11:40:29.513Z,1.60
2022-09-20T11:42:57.569Z,1.40
2022-09-20T11:45:28.305Z,1.60
2022-09-20T11:48:11.770Z,1.35
2022-09-20T11:50:45.328Z,1.30
2022-09-20T11:53:37.242Z,1.30
2022-09-20T11:56:08.023Z,1.40
2022-09-20T11:58:52.018Z,1.17
2022-09-20T12:01:48.329Z,1.40
2022-09-20T12:04:32.503Z,1.20
2022-09-20T12:07:17.848Z,1.42
2022-09-20T12:10:01.941Z,1.30
2022-09-20T12:12:39.318Z,2.20
2022-09-20T12:15:28.163Z,1.30
2022-09-20T12:17:58.812Z,1.20
2022-09-20T12:20:35.103Z,1.30
2022-09-20T12:23:45.348Z,1.40
2022-09-20T12:26:21.782Z,1.40
2022-09-20T12:28:52.615Z,1.50
2022-09-20T12:31:22.603Z,1.23
2022-09-20T12:34:16.036Z,1.33
2022-09-20T12:37:10.323Z,1.40
2022-09-20T12:39:38.322Z,1.75
2022-09-20T12:42:12.039Z,1.30
2022-09-20T12:44:41.204Z,1.45
2022-09-20T12:47:11.124Z,1.50
2022-09-20T12:49:56.824Z,1.40
2022-09-20T12:52:42.272Z,1.40
2022-09-20T12:55:11.357Z,1.70
2022-09-20T12:57:38.583Z,1.80
2022-09-20T13:00:06.978Z,1.80
2022-09-20T13:02:56.738Z,1.63
2022-09-20T13:05:32.241Z,1.90
2022-09-20T13:08:22.719Z,1.83
2022-09-20T13:11:19.253Z,1.70
2022-09-20T13:13:56.269Z,1.70
2022-09-20T13:16:39.531Z,1.80
2022-09-20T13:19:11.206Z,1.90
2022-09-20T13:21:40.453Z,1.65
2022-09-20T13:24:08.023Z,1.80
2022-09-20T13:26:40.124Z,1.75
2022-09-20T13:29:10.354Z,1.95
2022-09-20T13:31:37.614Z,1.95
2022-09-20T13:34:24.365Z,2.10
2022-09-20T13:36:56.523Z,2.30
2022-09-20T13:39:29.692Z,2.13
2022-09-20T13:42:12.333Z,2.13
2022-09-20T13:44:39.326Z,1.90
2022-09-20T13:47:29.444Z,2.00
2022-09-20T13:50:10.358Z,1.80
2022-09-20T13:52:47.299Z,2.45
2022-09-20T13:55:33.291Z,1.80
2022-09-20T13:58:06.225Z,1.80
2022-09-20T14:00:33.740Z,1.90
2022-09-20T14:03:00.787Z,2.13
2022-09-20T14:05:29.434Z,2.10
2022-09-20T14:07:56.816Z,1.90
2022-09-20T14:10:31.158Z,2.10
2022-09-20T14:12:59.767Z,1.95
2022-09-20T14:15:27.488Z,1.77
2022-09-20T14:17:55.487Z,1.67
2022-09-20T14:20:24.057Z,1.80
2022-09-20T14:22:51.009Z,1.88
2022-09-20T14:25:27.791Z,2.00
2022-09-20T14:28:16.516Z,2.10
2022-09-20T14:30:43.488Z,2.10
2022-09-20T14:33:15.374Z,1.80
2022-09-20T14:35:51.691Z,1.90
2022-09-20T14:38:22.441Z,2.00
2022-09-20T14:40:49.861Z,1.95
2022-09-20T14:43:37.122Z,1.92
2022-09-20T14:46:05.639Z,1.90
2022-09-20T14:48:42.918Z,2.17
2022-09-20T14:51:16.456Z,1.95
2022-09-20T14:53:44.280Z,1.90
2022-09-20T14:56:12.575Z,1.90
2022-09-20T14:59:06.655Z,1.83
2022-09-20T15:01:34.739Z,1.83
2022-09-20T15:04:09.730Z,1.95
2022-09-20T15:06:40.230Z,1.88
2022-09-20T15:09:07.345Z,1.70
2022-09-20T15:11:34.337Z,2.15
2022-09-20T15:14:01.365Z,2.30
2022-09-20T15:16:28.275Z,1.75
2022-09-20T15:18:55.280Z,1.85
2022-09-20T15:21:22.351Z,2.00
2022-09-20T15:23:49.243Z,1.95
2022-09-20T15:26:16.305Z,1.75
2022-09-20T15:28:43.198Z,1.70
2022-09-20T15:31:10.336Z,1.90
2022-09-20T15:33:37.333Z,1.98
2022-09-20T15:36:04.509Z,1.80
2022-09-20T15:38:31.450Z,1.65
2022-09-20T15:41:00.708Z,1.83
2022-09-20T15:43:28.198Z,2.03
2022-09-20T15:45:56.754Z,1.80
2022-09-20T15:48:25.581Z,1.63
2022-09-20T15:51:06.882Z,1.75
2022-09-20T15:53:35.523Z,1.70
2022-09-20T15:56:04.448Z,1.70
2022-09-20T15:58:36.738Z,1.85
2022-09-20T16:01:08.267Z,1.92
2022-09-20T16:06:04.834Z,1.90
2022-09-20T16:08:36.369Z,2.05
2022-09-20T16:11:03.453Z,2.22
2022-09-20T16:13:30.449Z,2.17
2022-09-20T16:15:58.202Z,2.10
2022-09-20T16:18:44.245Z,2.22
2022-09-20T16:21:12.592Z,2.10
2022-09-20T16:23:40.515Z,1.90
2022-09-20T16:26:09.732Z,2.28
2022-09-20T16:28:37.058Z,2.20
2022-09-20T16:31:04.081Z,2.00
2022-09-20T16:33:33.123Z,2.13
2022-09-20T16:36:00.668Z,2.00
2022-09-20T16:38:28.528Z,2.10
2022-09-20T16:40:55.741Z,2.22
2022-09-20T16:43:26.258Z,2.10
2022-09-20T16:46:00.663Z,2.20
2022-09-20T16:48:31.621Z,1.90
2022-09-20T16:51:04.774Z,2.22
2022-09-20T16:53:32.799Z,2.10
2022-09-20T16:56:01.147Z,2.42
2022-09-20T16:58:29.518Z,2.17
2022-09-20T17:01:06.303Z,2.30
2022-09-20T17:03:34.312Z,1.95
2022-09-20T17:06:02.715Z,2.25
2022-09-20T17:08:29.838Z,2.33
2022-09-20T17:11:01.272Z,1.95
2022-09-20T17:13:33.043Z,2.00
2022-09-20T17:16:04.166Z,2.10
2022-09-20T17:18:31.182Z,2.20
2022-09-20T17:21:04.246Z,2.10
2022-09-20T17:23:33.944Z,2.10
2022-09-20T17:26:06.593Z,2.10
2022-09-20T17:28:37.981Z,2.03
2022-09-20T17:31:06.147Z,2.38
2022-09-20T17:33:33.906Z,2.20
2022-09-20T17:36:01.648Z,2.00
2022-09-20T17:38:30.999Z,2.00
2022-09-20T17:41:01.622Z,2.20
2022-09-20T17:43:29.998Z,2.28
2022-09-20T17:46:05.514Z,2.25
2022-09-20T17:48:34.340Z,2.10
2022-09-20T17:51:02.530Z,2.03
2022-09-20T17:53:33.659Z,1.92
2022-09-20T17:56:00.849Z,2.17
2022-09-20T17:58:27.943Z,2.20
2022-09-20T18:00:56.707Z,2.28
2022-09-20T18:03:24.304Z,1.85
2022-09-20T18:05:51.727Z,2.30
2022-09-20T18:08:19.152Z,2.53
2022-09-20T18:10:59.063Z,2.20
2022-09-20T18:13:27.795Z,2.20
2022-09-20T18:15:54.867Z,2.20
2022-09-20T18:18:21.995Z,2.60
2022-09-20T18:20:49.657Z,2.30
2022-09-20T18:23:16.780Z,1.98
2022-09-20T18:26:02.048Z,2.22
2022-09-20T18:28:29.065Z,2.40
2022-09-20T18:31:02.925Z,2.40
2022-09-20T18:33:30.988Z,2.42
2022-09-20T18:36:05.014Z,2.20
2022-09-20T18:38:33.200Z,2.70
2022-09-20T18:41:01.086Z,2.28
2022-09-20T18:43:30.085Z,2.33
2022-09-20T18:45:57.675Z,2.85
2022-09-20T18:48:25.776Z,2.90
2022-09-20T18:51:00.565Z,3.15
2022-09-20T18:53:35.515Z,3.15
2022-09-20T18:56:29.717Z,3.30
2022-09-20T18:59:03.930Z,3.03
2022-09-20T19:02:02.400Z,3.00
2022-09-20T19:05:08.391Z,3.03
2022-09-20T19:08:01.629Z,3.28
2022-09-20T19:10:51.691Z,3.08
2022-09-20T19:13:42.548Z,3.33
2022-09-20T19:16:25.319Z,3.00
2022-09-20T19:19:14.715Z,3.05
2022-09-20T19:21:56.932Z,3.42
2022-09-20T19:24:38.991Z,3.40
2022-09-20T19:27:06.467Z,3.42
2022-09-20T19:29:33.970Z,3.20
2022-09-20T19:32:01.365Z,3.80
2022-09-20T19:34:29.985Z,3.63
2022-09-20T19:37:18.886Z,3.20
2022-09-20T19:40:01.150Z,3.42
2022-09-20T19:42:36.332Z,3.78
2022-09-20T19:45:10.392Z,3.72
2022-09-20T19:48:05.331Z,3.47
2022-09-20T19:50:45.311Z,3.95
2022-09-20T19:53:16.988Z,3.90
2022-09-20T19:55:48.529Z,3.58
2022-09-20T19:58:15.758Z,3.83
2022-09-20T20:00:46.473Z,3.97
2022-09-20T20:03:14.055Z,4.30
2022-09-20T20:06:07.857Z,3.95
2022-09-20T20:08:43.138Z,3.90
2022-09-20T20:11:28.479Z,4.05
2022-09-20T20:14:09.201Z,3.97
2022-09-20T20:16:45.563Z,4.15
2022-09-20T20:19:30.181Z,4.30
2022-09-20T20:21:59.031Z,4.18
2022-09-20T20:24:34.283Z,4.03
2022-09-20T20:27:01.326Z,4.25
2022-09-20T20:29:28.337Z,4.57
2022-09-20T20:31:55.199Z,4.15
2022-09-20T20:34:22.887Z,4.30
2022-09-20T20:36:49.910Z,4.35
2022-09-20T20:39:17.537Z,4.07
2022-09-20T20:41:44.674Z,3.92
2022-09-20T20:44:12.478Z,4.30
2022-09-20T20:46:39.550Z,4.22
2022-09-20T20:49:06.479Z,4.80
2022-09-20T20:51:33.393Z,4.40
2022-09-20T20:54:00.390Z,4.43
2022-09-20T20:56:28.876Z,4.55
2022-09-20T20:59:00.708Z,4.70
2022-09-20T21:01:29.051Z,4.68
2022-09-20T21:03:56.325Z,5.00
2022-09-20T21:06:25.217Z,4.45
2022-09-20T21:08:52.310Z,4.70
2022-09-20T21:11:29.827Z,4.72
2022-09-20T21:13:57.945Z,4.78
2022-09-20T21:16:26.684Z,4.80
2022-09-20T21:18:53.840Z,4.20
2022-09-20T21:21:26.029Z,4.60
2022-09-20T21:23:54.882Z,4.90
2022-09-20T21:26:22.342Z,4.78
2022-09-20T21:28:54.014Z,5.53
2022-09-20T21:31:22.507Z,5.30
2022-09-20T21:33:49.749Z,5.30
2022-09-20T21:36:17.812Z,5.82
2022-09-20T21:38:45.301Z,5.10
2022-09-20T21:41:14.197Z,5.88
2022-09-20T21:43:43.133Z,5.38
2022-09-20T21:46:14.204Z,5.70
2022-09-20T21:48:41.465Z,7.00
2022-09-20T21:51:10.789Z,5.68
2022-09-20T21:53:38.554Z,6.45
2022-09-20T21:56:09.922Z,6.45
2022-09-20T21:58:40.189Z,5.75
2022-09-20T22:01:14.905Z,6.45
2022-09-20T22:03:49.377Z,6.32
2022-09-20T22:06:36.352Z,6.13
2022-09-20T22:09:09.783Z,6.47
2022-09-20T22:11:41.080Z,6.20
2022-09-20T22:14:08.774Z,6.70
2022-09-20T22:16:37.994Z,6.43
2022-09-20T22:19:05.382Z,5.65
2022-09-20T22:21:37.018Z,6.07
2022-09-20T22:24:08.150Z,5.85
2022-09-20T22:26:37.102Z,6.03
2022-09-20T22:29:04.474Z,6.00
2022-09-20T22:31:32.617Z,5.38
2022-09-20T22:34:04.107Z,6.03
2022-09-20T22:36:32.803Z,5.55
2022-09-20T22:38:59.721Z,5.45
2022-09-20T22:41:27.891Z,5.90
2022-09-20T22:43:55.124Z,6.18
2022-09-20T22:46:23.708Z,5.50
2022-09-20T22:48:50.820Z,6.22
2022-09-20T22:51:19.485Z,6.10
2022-09-20T22:53:46.938Z,6.32
2022-09-20T22:56:25.003Z,5.90
2022-09-20T22:58:53.477Z,5.60
2022-09-20T23:01:22.353Z,4.93
2022-09-20T23:03:57.418Z,6.00
2022-09-20T23:06:28.121Z,5.53
2022-09-20T23:08:57.256Z,5.68
2022-09-20T23:11:24.501Z,5.43
2022-09-20T23:14:16.029Z,5.38
2022-09-20T23:16:43.158Z,4.93
2022-09-20T23:19:10.474Z,5.28
2022-09-20T23:21:38.330Z,5.18
2022-09-20T23:24:06.937Z,4.45
2022-09-20T23:26:34.868Z,4.78
2022-09-20T23:29:12.509Z,6.07
2022-09-20T23:31:40.485Z,5.68
2022-09-20T23:34:08.217Z,5.93
2022-09-20T23:36:36.981Z,5.30
2022-09-20T23:39:04.482Z,5.15
2022-09-20T23:41:31.453Z,5.38
2022-09-20T23:43:58.514Z,5.18
2022-09-20T23:46:26.076Z,5.20
2022-09-20T23:48:53.237Z,5.90
2022-09-20T23:51:22.532Z,5.45
2022-09-20T23:53:50.237Z,5.32
2022-09-20T23:56:17.519Z,5.70
2022-09-20T23:58:45.146Z,5.35
